createdAt,value
2023-03-26T00:00:00.141Z,97736.47
2023-03-26T00:05:04.482Z,97720.41
2023-03-26T00:10:09.542Z,97738.50
2023-03-26T00:15:14.493Z,97741.13
2023-03-26T00:20:35.851Z,97740.25
2023-03-26T00:25:41.628Z,97738.66
2023-03-26T00:30:46.744Z,97725.81
2023-03-26T00:35:54.402Z,97714.72
2023-03-26T00:41:06.141Z,97721.78
2023-03-26T00:46:47.560Z,97715.03
2023-03-26T00:52:10.234Z,97706.63
2023-03-26T00:57:20.186Z,97710.34
2023-03-26T01:02:30.791Z,97716.47
2023-03-26T01:07:35.346Z,97702.91
2023-03-26T01:12:38.909Z,97700.41
2023-03-26T01:18:05.073Z,97692.66
2023-03-26T01:23:53.537Z,97700.41
2023-03-26T01:29:01.808Z,97708.28
2023-03-26T01:34:12.517Z,97706.56
2023-03-26T01:39:21.798Z,97709.00
2023-03-26T01:44:32.826Z,97715.88
2023-03-26T01:49:36.625Z,97718.47
2023-03-26T01:54:41.442Z,97708.22
2023-03-26T02:00:07.310Z,97700.34
2023-03-26T02:05:17.312Z,97695.19
2023-03-26T02:10:25.558Z,97690.06
2023-03-26T02:15:30.639Z,97686.59
2023-03-26T02:20:34.229Z,97688.28
2023-03-26T02:25:39.988Z,97696.03
2023-03-26T02:30:46.041Z,97687.44
2023-03-26T02:35:49.687Z,97684.06
2023-03-26T02:40:53.340Z,97672.84
2023-03-26T02:45:58.527Z,97661.63
2023-03-26T02:51:37.770Z,97657.38
2023-03-26T02:56:41.347Z,97660.03
2023-03-26T03:01:46.180Z,97650.59
2023-03-26T03:06:57.706Z,97647.94
2023-03-26T03:12:01.222Z,97640.22
2023-03-26T03:17:24.531Z,97643.59
2023-03-26T03:22:27.965Z,97632.47
2023-03-26T03:27:31.840Z,97618.00
2023-03-26T03:32:36.783Z,97620.44
2023-03-26T03:37:40.126Z,97618.59
2023-03-26T03:42:43.610Z,97625.50
2023-03-26T03:47:48.489Z,97616.75
2023-03-26T03:52:51.925Z,97611.47
2023-03-26T03:57:56.327Z,97602.09
2023-03-26T04:03:06.349Z,97599.38
2023-03-26T04:08:09.904Z,97601.09
2023-03-26T04:13:14.309Z,97604.34
2023-03-26T04:18:20.670Z,97595.59
2023-03-26T04:24:02.316Z,97592.94
2023-03-26T04:29:13.076Z,97586.91
2023-03-26T04:34:24.421Z,97580.78
2023-03-26T04:39:29.528Z,97585.91
2023-03-26T04:44:35.081Z,97583.13
2023-03-26T04:49:39.800Z,97575.91
2023-03-26T04:55:02.927Z,97564.59
2023-03-26T05:00:15.545Z,97568.75
2023-03-26T05:05:20.534Z,97565.22
2023-03-26T05:10:24.240Z,97561.34
2023-03-26T05:20:50.124Z,97547.84
2023-03-26T05:25:53.344Z,97548.50
2023-03-26T05:30:57.262Z,97546.53
2023-03-26T05:36:04.355Z,97546.28
2023-03-26T05:41:09.899Z,97540.16
2023-03-26T05:46:13.694Z,97539.47
2023-03-26T05:51:36.021Z,97523.16
2023-03-26T05:57:16.498Z,97536.44
2023-03-26T06:02:20.035Z,97534.19
2023-03-26T06:07:24.954Z,97529.84
2023-03-26T06:12:28.140Z,97523.38
2023-03-26T06:17:49.860Z,97511.56
2023-03-26T06:22:54.701Z,97518.41
2023-03-26T06:27:57.889Z,97510.56
2023-03-26T06:33:01.527Z,97504.63
2023-03-26T06:38:07.764Z,97495.63
2023-03-26T06:43:12.011Z,97497.47
2023-03-26T06:48:15.493Z,97487.41
2023-03-26T06:53:20.341Z,97492.28
2023-03-26T06:58:40.968Z,97488.00
2023-03-26T07:03:44.399Z,97482.84
2023-03-26T07:08:49.222Z,97484.31
2023-03-26T07:13:52.501Z,97479.75
2023-03-26T07:19:13.018Z,97480.66
2023-03-26T07:29:47.070Z,97470.97
2023-03-26T07:34:56.432Z,97471.09
2023-03-26T07:40:06.248Z,97463.94
2023-03-26T07:45:21.161Z,97468.69
2023-03-26T07:50:26.784Z,97468.22
2023-03-26T07:55:32.152Z,97451.41
2023-03-26T08:00:41.108Z,97450.03
2023-03-26T08:05:53.524Z,97425.91
2023-03-26T08:11:10.010Z,97437.34
2023-03-26T08:16:20.783Z,97416.31
2023-03-26T08:21:28.463Z,97419.28
2023-03-26T08:26:44.458Z,97411.00
2023-03-26T08:31:50.278Z,97403.84
2023-03-26T08:36:53.806Z,97391.25
2023-03-26T08:42:53.822Z,97380.19
2023-03-26T08:48:34.270Z,97377.06
2023-03-26T08:53:59.045Z,97363.16
2023-03-26T08:59:55.947Z,97343.13
2023-03-26T09:05:41.929Z,97349.16
2023-03-26T09:10:54.179Z,97322.72
2023-03-26T09:16:36.235Z,97327.06
2023-03-26T09:22:07.146Z,97319.03
2023-03-26T09:27:39.505Z,97301.66
2023-03-26T09:33:22.934Z,97296.47
2023-03-26T09:38:47.006Z,97297.38
2023-03-26T09:44:24.176Z,97299.56
2023-03-26T09:49:39.612Z,97298.38
2023-03-26T09:55:20.131Z,97289.41
2023-03-26T10:00:29.900Z,97291.91
2023-03-26T10:05:58.196Z,97298.25
2023-03-26T10:11:10.233Z,97312.44
2023-03-26T10:16:25.427Z,97311.59
2023-03-26T10:21:59.060Z,97302.19
2023-03-26T10:27:13.550Z,97282.00
2023-03-26T10:32:30.856Z,97267.22
2023-03-26T10:37:49.465Z,97272.59
2023-03-26T10:43:25.062Z,97254.22
2023-03-26T10:48:42.139Z,97248.91
2023-03-26T10:54:08.283Z,97263.28
2023-03-26T10:59:14.860Z,97256.78
2023-03-26T11:04:35.836Z,97252.19
2023-03-26T11:09:46.860Z,97242.13
2023-03-26T11:14:58.870Z,97239.22
2023-03-26T11:20:08.922Z,97243.78
2023-03-26T11:25:46.631Z,97228.03
2023-03-26T11:30:57.178Z,97228.19
2023-03-26T11:36:07.152Z,97227.16
2023-03-26T11:41:16.170Z,97218.50
2023-03-26T11:46:28.738Z,97219.44
2023-03-26T11:51:35.812Z,97218.16
2023-03-26T11:57:04.524Z,97221.19
2023-03-26T12:02:24.402Z,97207.31
2023-03-26T12:07:34.252Z,97204.81
2023-03-26T12:12:40.741Z,97203.16
2023-03-26T12:17:44.272Z,97206.97
2023-03-26T12:22:49.286Z,97187.72
2023-03-26T12:27:58.937Z,97196.50
2023-03-26T12:33:05.879Z,97177.72
2023-03-26T12:38:23.779Z,97167.34
2023-03-26T12:44:47.215Z,97162.25
2023-03-26T12:48:58.273Z,97167.34
2023-03-26T12:54:23.891Z,97158.19
2023-03-26T12:59:41.024Z,97160.69
2023-03-26T13:05:07.434Z,97154.66
2023-03-26T13:10:39.734Z,97162.88
2023-03-26T13:15:47.402Z,97156.06
2023-03-26T13:20:55.256Z,97157.94
2023-03-26T13:26:06.594Z,97144.25
2023-03-26T13:31:16.667Z,97146.03
2023-03-26T13:36:24.837Z,97125.66
2023-03-26T13:41:38.177Z,97144.53
2023-03-26T13:46:44.316Z,97136.94
2023-03-26T13:51:51.626Z,97125.00
2023-03-26T13:57:00.276Z,97136.94
2023-03-26T14:02:10.938Z,97118.06
2023-03-26T14:07:22.581Z,97122.94
2023-03-26T14:12:49.017Z,97129.47
2023-03-26T14:17:57.402Z,97127.03
2023-03-26T14:23:24.071Z,97137.50
2023-03-26T14:29:03.866Z,97129.38
2023-03-26T14:34:24.450Z,97129.94
2023-03-26T14:40:01.581Z,97126.34
2023-03-26T14:45:37.771Z,97131.69
2023-03-26T14:50:55.886Z,97135.53
2023-03-26T14:56:27.120Z,97130.66
2023-03-26T15:01:53.700Z,97126.16
2023-03-26T15:07:31.399Z,97120.22
2023-03-26T15:12:49.918Z,97125.09
2023-03-26T15:18:29.167Z,97119.94
2023-03-26T15:24:00.831Z,97116.09
2023-03-26T15:29:25.882Z,97107.53
2023-03-26T15:34:59.703Z,97115.88
2023-03-26T15:40:27.855Z,97107.47
2023-03-26T15:45:37.938Z,97117.97
2023-03-26T15:50:52.923Z,97129.31
2023-03-26T15:56:33.028Z,97134.63
2023-03-26T16:01:52.365Z,97131.94
2023-03-26T16:07:03.509Z,97132.06
2023-03-26T16:12:29.823Z,97131.41
2023-03-26T16:18:22.753Z,97133.31
2023-03-26T16:23:29.507Z,97135.81
2023-03-26T16:28:35.265Z,97140.00
2023-03-26T16:33:45.770Z,97139.03
2023-03-26T16:39:10.905Z,97134.59
2023-03-26T16:44:21.784Z,97136.19
2023-03-26T16:49:40.067Z,97137.06
2023-03-26T16:54:52.756Z,97139.41
2023-03-26T17:00:29.315Z,97141.84
2023-03-26T17:05:39.253Z,97147.38
2023-03-26T17:10:53.552Z,97154.13
2023-03-26T17:16:07.409Z,97150.84
2023-03-26T17:21:17.368Z,97154.22
2023-03-26T17:26:27.250Z,97137.91
2023-03-26T17:31:41.477Z,97155.78
2023-03-26T17:36:56.483Z,97155.88
2023-03-26T17:42:13.769Z,97162.91
2023-03-26T17:47:27.980Z,97160.66
2023-03-26T17:52:55.747Z,97161.44
2023-03-26T17:58:01.228Z,97168.19
2023-03-26T18:03:13.306Z,97162.00
2023-03-26T18:08:35.169Z,97129.94
2023-03-26T18:13:55.082Z,97160.44
2023-03-26T18:19:00.951Z,97161.53
2023-03-26T18:24:07.912Z,97164.47
2023-03-26T18:29:18.556Z,97162.66
2023-03-26T18:34:22.685Z,97167.09
2023-03-26T18:39:28.353Z,97166.41
2023-03-26T18:44:34.506Z,97169.06
2023-03-26T18:49:38.108Z,97172.03
2023-03-26T18:54:44.295Z,97171.28
2023-03-26T18:59:51.819Z,97167.03
2023-03-26T19:04:56.845Z,97164.72
2023-03-26T19:10:01.907Z,97172.56
2023-03-26T19:15:07.975Z,97175.31
2023-03-26T19:20:17.963Z,97161.94
2023-03-26T19:25:26.720Z,97178.03
2023-03-26T19:30:33.483Z,97187.75
2023-03-26T19:35:42.205Z,97182.66
2023-03-26T19:40:47.386Z,97178.47
2023-03-26T19:45:59.573Z,97179.25
2023-03-26T19:51:06.823Z,97171.69
2023-03-26T19:56:19.427Z,97177.69
2023-03-26T20:01:26.774Z,97182.22
2023-03-26T20:06:42.638Z,97180.84
2023-03-26T20:11:49.756Z,97181.72
2023-03-26T20:16:53.861Z,97180.03
2023-03-26T20:21:57.371Z,97186.06
2023-03-26T20:27:02.182Z,97174.78
2023-03-26T20:32:09.581Z,97192.75
2023-03-26T20:37:13.164Z,97188.56
2023-03-26T20:42:18.117Z,97192.88
2023-03-26T20:47:21.807Z,97200.72
2023-03-26T20:52:25.895Z,97211.09
2023-03-26T20:57:33.380Z,97205.97
2023-03-26T21:02:37.182Z,97201.63
2023-03-26T21:07:41.314Z,97206.09
2023-03-26T21:12:52.422Z,97206.88
2023-03-26T21:17:56.827Z,97212.16
2023-03-26T21:23:06.327Z,97223.25
2023-03-26T21:28:28.905Z,97206.03
2023-03-26T21:33:41.113Z,97214.63
2023-03-26T21:38:45.693Z,97228.22
2023-03-26T21:43:50.829Z,97229.78
2023-03-26T21:48:54.801Z,97233.53
2023-03-26T21:53:58.728Z,97225.75
2023-03-26T21:59:11.896Z,97247.22
2023-03-26T22:04:19.595Z,97251.41
2023-03-26T22:09:30.096Z,97246.31
2023-03-26T22:14:40.686Z,97246.41
2023-03-26T22:19:44.091Z,97233.91
2023-03-26T22:24:48.006Z,97260.53
2023-03-26T22:29:53.064Z,97265.56
2023-03-26T22:34:56.526Z,97272.28
2023-03-26T22:40:00.347Z,97268.81
2023-03-26T22:45:06.213Z,97265.34
2023-03-26T22:50:11.758Z,97265.31
2023-03-26T22:55:15.833Z,97255.13
2023-03-26T23:00:34.968Z,97257.69
2023-03-26T23:05:38.791Z,97249.97
2023-03-26T23:10:44.176Z,97251.81
2023-03-26T23:15:52.289Z,97252.25
2023-03-26T23:20:57.917Z,97259.03
2023-03-26T23:26:03.160Z,97258.69
2023-03-26T23:31:10.342Z,97254.53
2023-03-26T23:36:15.038Z,97257.88
2023-03-26T23:41:21.772Z,97259.50
2023-03-26T23:46:30.909Z,97268.75
2023-03-26T23:51:36.273Z,97262.72
2023-03-26T23:56:39.943Z,97253.28
